Time;durP1;ratioP1;P1;durP2;ratioP2;P2;SDS_P1;SDS_P2;PMS_P1;PMS_P2;Temp;Humidity;BMP_temperature;BMP_pressure;BME280_temperature;BME280_humidity;BME280_pressure;Samples;Min_cycle;Max_cycle;Signal;HPM_P1;HPM_P2
2022/01/02 13:19:07;;;;;;;92.13;51.70;;;7.60;99.90;;;;;;5293999;23;20139;-79
2022/01/02 13:21:33;;;;;;;102.40;51.55;;;7.70;99.90;;;;;;4914134;29;20422;-76
2022/01/02 13:24:36;;;;;;;93.85;50.88;;;7.70;99.90;;;;;;4897672;29;20028;-78
2022/01/02 13:27:05;;;;;;;114.20;59.38;;;7.80;99.90;;;;;;4914242;29;20139;-77
2022/01/02 13:29:30;;;;;;;88.20;49.15;;;7.90;99.90;;;;;;4915472;29;20024;-75
2022/01/02 13:32:10;;;;;;;109.60;60.50;;;7.90;99.90;;;;;;4898284;29;20067;-78
2022/01/02 13:34:35;;;;;;;111.50;61.38;;;7.90;99.90;;;;;;4918219;29;20024;-77
2022/01/02 13:37:02;;;;;;;102.18;56.50;;;7.90;99.90;;;;;;4919131;29;20078;-77
2022/01/02 13:39:47;;;;;;;100.13;55.17;;;7.90;99.90;;;;;;4901751;29;20036;-78
2022/01/02 13:42:17;;;;;;;96.28;52.15;;;7.90;99.90;;;;;;4919655;29;20091;-78
2022/01/02 13:44:49;;;;;;;100.95;54.75;;;8.00;99.90;;;;;;4919502;29;20044;-77
2022/01/02 13:47:16;;;;;;;123.45;68.60;;;8.00;99.90;;;;;;4902198;29;20027;-75
2022/01/02 13:49:56;;;;;;;117.75;62.38;;;8.00;99.90;;;;;;4921029;29;20032;-76
2022/01/02 13:52:22;;;;;;;98.25;53.65;;;8.00;99.90;;;;;;4922310;29;20028;-77
2022/01/02 13:54:49;;;;;;;100.18;55.42;;;8.10;99.90;;;;;;4918981;29;20106;-77
2022/01/02 13:57:16;;;;;;;95.47;53.20;;;8.10;99.90;;;;;;4919172;29;20028;-75
2022/01/02 13:59:45;;;;;;;95.82;55.72;;;8.10;99.90;;;;;;4918875;29;20028;-78
2022/01/02 14:02:11;;;;;;;102.30;56.30;;;8.20;99.90;;;;;;4918873;29;20032;-76
2022/01/02 14:04:58;;;;;;;100.47;56.70;;;8.20;99.90;;;;;;4918917;29;20421;-77
2022/01/02 14:07:29;;;;;;;95.63;53.47;;;8.30;99.90;;;;;;4919052;29;20020;-78
2022/01/02 14:09:55;;;;;;;101.20;55.80;;;8.30;99.90;;;;;;4918824;29;20417;-76
2022/01/02 14:12:32;;;;;;;95.13;55.03;;;8.30;99.90;;;;;;4918941;29;20028;-77
2022/01/02 14:15:07;;;;;;;99.95;54.92;;;8.50;99.90;;;;;;4918954;29;20068;-75
2022/01/02 14:17:36;;;;;;;100.13;56.22;;;8.40;99.90;;;;;;4918920;29;20020;-77
2022/01/02 14:20:05;;;;;;;96.72;54.97;;;8.50;99.90;;;;;;4901502;29;20099;-78
2022/01/02 14:22:35;;;;;;;95.15;54.78;;;8.50;99.90;;;;;;4918363;29;20036;-79
2022/01/02 14:25:02;;;;;;;93.32;54.08;;;8.50;99.90;;;;;;4918577;29;20082;-76
2022/01/02 14:27:30;;;;;;;92.35;55.17;;;8.60;99.90;;;;;;4918711;29;20055;-78
2022/01/02 14:29:57;;;;;;;94.88;53.67;;;8.60;99.90;;;;;;4918666;29;20025;-77
2022/01/02 14:32:23;;;;;;;91.07;53.50;;;8.70;99.90;;;;;;4918436;29;20027;-78
2022/01/02 14:34:50;;;;;;;87.25;50.92;;;8.60;99.90;;;;;;4918458;29;20028;-77
2022/01/02 14:37:17;;;;;;;94.90;53.95;;;8.60;99.90;;;;;;4918798;29;20039;-78
2022/01/02 14:39:43;;;;;;;96.32;54.35;;;8.60;99.90;;;;;;4918466;29;20024;-76
2022/01/02 14:42:10;;;;;;;97.00;53.63;;;8.60;99.90;;;;;;4918517;29;20370;-76
2022/01/02 14:44:35;;;;;;;92.90;53.70;;;8.60;99.90;;;;;;4917915;29;20020;-79
2022/01/02 14:47:03;;;;;;;89.07;52.97;;;8.60;99.90;;;;;;4917918;29;20032;-80
2022/01/02 14:49:29;;;;;;;93.40;52.35;;;8.60;99.90;;;;;;4917999;29;20036;-77
2022/01/02 14:51:55;;;;;;;88.82;53.15;;;8.60;99.90;;;;;;4918281;29;20035;-79
2022/01/02 14:54:21;;;;;;;93.43;52.97;;;8.60;99.90;;;;;;4918479;29;20024;-76
2022/01/02 14:56:47;;;;;;;87.70;52.40;;;8.60;99.90;;;;;;4917946;29;20043;-77
2022/01/02 14:59:12;;;;;;;91.97;52.63;;;8.60;99.90;;;;;;4918133;29;20027;-77
2022/01/02 15:01:40;;;;;;;90.90;52.92;;;8.60;99.90;;;;;;4918427;29;20032;-74
2022/01/02 15:04:06;;;;;;;88.28;51.40;;;8.60;99.90;;;;;;4918132;29;20024;-77
2022/01/02 15:06:33;;;;;;;93.75;53.60;;;8.60;99.90;;;;;;4918120;29;20039;-78
2022/01/02 15:09:00;;;;;;;101.80;54.05;;;8.60;99.90;;;;;;4917939;29;20389;-76
2022/01/02 15:11:26;;;;;;;93.32;54.13;;;8.60;99.90;;;;;;4917632;29;20032;-78
2022/01/02 15:13:52;;;;;;;101.05;58.85;;;8.60;99.90;;;;;;4917569;29;20024;-76
2022/01/02 15:16:18;;;;;;;107.80;60.88;;;8.60;99.90;;;;;;4900680;29;20036;-78
2022/01/02 15:18:43;;;;;;;107.43;61.65;;;8.60;99.90;;;;;;4917213;29;20119;-76
2022/01/02 15:21:10;;;;;;;110.50;60.55;;;8.60;99.90;;;;;;4917493;29;20492;-77
2022/01/02 15:23:36;;;;;;;92.00;53.85;;;8.60;99.90;;;;;;4917534;29;20108;-76
2022/01/02 15:26:01;;;;;;;108.90;62.05;;;8.60;99.90;;;;;;4917397;29;20456;-78
2022/01/02 15:28:28;;;;;;;116.70;64.60;;;8.60;99.90;;;;;;4900513;29;20024;-77
2022/01/02 15:30:53;;;;;;;147.57;80.28;;;8.60;99.90;;;;;;4917547;29;20020;-76
2022/01/02 15:33:19;;;;;;;111.65;64.28;;;8.60;99.90;;;;;;4900486;29;20119;-78
2022/01/02 15:35:45;;;;;;;130.38;74.28;;;8.60;99.90;;;;;;4917223;29;20050;-78
2022/01/02 15:38:11;;;;;;;125.15;70.38;;;8.60;99.90;;;;;;4917357;29;20103;-78
2022/01/02 15:40:37;;;;;;;102.35;60.72;;;8.60;99.90;;;;;;4917285;29;20481;-76
2022/01/02 15:43:03;;;;;;;103.82;60.20;;;8.60;99.90;;;;;;4917186;29;20032;-77
2022/01/02 15:45:28;;;;;;;117.90;67.53;;;8.60;99.90;;;;;;4917317;29;20051;-77
2022/01/02 15:47:54;;;;;;;149.82;80.70;;;8.60;99.90;;;;;;4917175;29;20481;-77
2022/01/02 15:50:21;;;;;;;144.73;79.03;;;8.50;99.90;;;;;;4916868;29;20128;-77
2022/01/02 15:52:47;;;;;;;131.27;74.82;;;8.50;99.90;;;;;;4917240;29;20032;-80
2022/01/02 15:55:14;;;;;;;113.72;64.35;;;8.50;99.90;;;;;;4917211;29;20063;-76
2022/01/02 15:57:39;;;;;;;103.70;60.33;;;8.60;99.90;;;;;;4917217;29;20119;-80
2022/01/02 16:00:11;;;;;;;100.78;57.53;;;8.50;99.90;;;;;;4917086;29;20509;-77
2022/01/02 16:02:37;;;;;;;107.88;61.05;;;8.50;99.90;;;;;;4917621;29;20031;-79
2022/01/02 16:05:04;;;;;;;114.20;59.47;;;8.50;99.90;;;;;;4917173;29;20048;-76
2022/01/02 16:07:30;;;;;;;114.00;61.17;;;8.50;99.90;;;;;;4916494;29;20047;-74
2022/01/02 16:09:56;;;;;;;166.05;94.20;;;8.50;99.90;;;;;;4915755;29;20027;-77
2022/01/02 16:12:21;;;;;;;107.20;61.08;;;8.50;99.90;;;;;;4918478;29;20036;-79
2022/01/02 16:14:48;;;;;;;110.45;62.45;;;8.40;99.90;;;;;;4915786;29;20020;-78
2022/01/02 16:17:14;;;;;;;161.20;91.47;;;8.50;99.90;;;;;;4915865;29;20118;-79
2022/01/02 16:19:40;;;;;;;114.68;66.00;;;8.40;99.90;;;;;;4915683;29;20115;-80
2022/01/02 16:22:05;;;;;;;121.82;68.25;;;8.40;99.90;;;;;;4915906;29;20028;-75
2022/01/02 16:24:31;;;;;;;132.07;72.03;;;8.40;99.90;;;;;;4898565;29;20111;-77
2022/01/02 16:26:57;;;;;;;131.00;70.65;;;8.40;99.90;;;;;;4915964;29;20031;-75
2022/01/02 16:29:25;;;;;;;135.77;72.63;;;8.40;99.90;;;;;;4916122;29;20024;-76
2022/01/02 16:31:56;;;;;;;106.05;59.45;;;8.40;99.90;;;;;;4915601;29;20048;-77
2022/01/02 16:34:22;;;;;;;103.05;58.95;;;8.40;99.90;;;;;;4915723;29;20138;-77
2022/01/02 16:36:47;;;;;;;102.55;56.67;;;8.40;99.90;;;;;;4915749;29;20520;-77
2022/01/02 16:39:13;;;;;;;91.20;53.53;;;8.40;99.90;;;;;;4914531;29;20032;-77
2022/01/02 16:41:39;;;;;;;77.30;46.13;;;8.40;99.90;;;;;;4916386;29;20028;-78
2022/01/02 16:44:05;;;;;;;88.80;51.80;;;8.40;99.90;;;;;;4915107;29;20056;-79
2022/01/02 16:46:31;;;;;;;82.50;47.88;;;8.40;99.90;;;;;;4920346;29;20035;-78
2022/01/02 16:48:57;;;;;;;69.13;41.78;;;8.40;99.90;;;;;;4934664;29;20023;-78
2022/01/02 16:51:23;;;;;;;70.75;41.60;;;8.40;99.90;;;;;;4934625;29;20066;-79
2022/01/02 16:53:48;;;;;;;64.78;39.85;;;8.40;99.90;;;;;;4934832;29;20477;-78
2022/01/02 16:56:14;;;;;;;69.57;40.65;;;8.40;99.90;;;;;;4934102;29;20032;-78
2022/01/02 16:58:45;;;;;;;62.17;36.75;;;8.40;99.90;;;;;;4918963;29;20020;-77
2022/01/02 17:01:12;;;;;;;59.22;34.25;;;8.40;99.90;;;;;;4914756;29;20098;-79
2022/01/02 17:03:38;;;;;;;51.35;30.98;;;8.30;99.90;;;;;;4917447;29;20048;-79
2022/01/02 17:06:03;;;;;;;46.92;27.83;;;8.30;99.90;;;;;;4914882;29;20032;-81
2022/01/02 17:08:29;;;;;;;47.22;30.73;;;8.40;99.90;;;;;;4914447;29;20040;-74
2022/01/02 17:10:55;;;;;;;46.78;29.20;;;8.30;99.90;;;;;;4915000;29;20028;-78
2022/01/02 17:13:20;;;;;;;44.53;28.35;;;8.40;99.90;;;;;;4917982;29;20024;-79
2022/01/02 17:15:49;;;;;;;53.78;30.38;;;8.40;99.90;;;;;;4915317;29;20426;-78
2022/01/02 17:18:15;;;;;;;40.97;26.55;;;8.40;99.90;;;;;;4914564;29;20099;-80
2022/01/02 17:20:42;;;;;;;47.97;27.58;;;8.40;99.90;;;;;;4914489;29;20393;-78
2022/01/02 17:23:07;;;;;;;55.38;27.98;;;8.40;99.90;;;;;;4917799;29;20031;-79
2022/01/02 17:25:33;;;;;;;50.78;30.33;;;8.40;99.90;;;;;;4915490;29;20047;-76
2022/01/02 17:27:59;;;;;;;44.35;26.77;;;8.40;99.90;;;;;;4915878;29;20043;-78
2022/01/02 17:30:25;;;;;;;47.75;29.33;;;8.40;99.90;;;;;;4917469;29;20028;-81
2022/01/02 17:32:51;;;;;;;44.35;28.08;;;8.40;99.90;;;;;;4917337;29;20032;-83
2022/01/02 17:35:17;;;;;;;45.72;27.30;;;8.40;99.90;;;;;;4917457;29;20063;-78
2022/01/02 17:37:44;;;;;;;47.47;29.38;;;8.40;99.90;;;;;;4915472;29;20495;-76
2022/01/02 17:40:12;;;;;;;45.70;28.80;;;8.40;99.90;;;;;;4915245;29;20024;-76
2022/01/02 17:42:38;;;;;;;44.92;28.08;;;8.50;99.90;;;;;;4915581;29;20031;-73
2022/01/02 17:45:05;;;;;;;50.72;30.20;;;8.50;99.90;;;;;;4915502;29;20033;-76
2022/01/02 17:47:31;;;;;;;54.85;33.35;;;8.50;99.90;;;;;;4915416;29;20056;-78
2022/01/02 17:49:57;;;;;;;46.88;28.15;;;8.50;99.90;;;;;;4915514;29;20059;-79
2022/01/02 17:52:23;;;;;;;49.28;28.13;;;8.50;99.90;;;;;;4915160;29;20536;-76
2022/01/02 17:54:48;;;;;;;58.92;35.58;;;8.60;99.90;;;;;;4915045;29;20051;-77
2022/01/02 17:57:14;;;;;;;60.60;34.63;;;8.60;99.90;;;;;;4916819;29;20032;-76
2022/01/02 17:59:40;;;;;;;63.95;38.33;;;8.60;99.90;;;;;;4914338;29;20052;-80
2022/01/02 18:02:06;;;;;;;67.35;42.45;;;8.60;99.90;;;;;;4914653;29;20028;-78
2022/01/02 18:04:32;;;;;;;58.10;34.15;;;8.60;99.90;;;;;;4914117;29;20028;-74
2022/01/02 18:06:58;;;;;;;65.00;37.75;;;8.60;99.90;;;;;;4913856;29;20508;-75
2022/01/02 18:09:38;;;;;;;64.35;34.97;;;8.50;99.90;;;;;;4898729;29;20111;-75
2022/01/02 18:12:04;;;;;;;54.10;32.90;;;8.50;99.90;;;;;;4914957;29;20362;-74
2022/01/02 18:14:30;;;;;;;77.05;44.53;;;8.50;99.90;;;;;;4915501;29;20021;-75
2022/01/02 18:16:56;;;;;;;103.22;52.65;;;8.40;99.90;;;;;;4913741;29;20035;-74
2022/01/02 18:19:22;;;;;;;52.20;30.95;;;8.40;99.90;;;;;;4914028;29;20576;-74
2022/01/02 18:21:49;;;;;;;59.63;33.83;;;8.40;99.90;;;;;;4935586;29;20067;-74
2022/01/02 18:24:20;;;;;;;54.42;31.42;;;8.40;99.90;;;;;;4931936;29;20027;-74
2022/01/02 18:26:47;;;;;;;65.55;35.00;;;8.40;99.90;;;;;;4916882;29;20044;-75
2022/01/02 18:29:14;;;;;;;82.55;43.17;;;8.40;99.90;;;;;;4922357;29;20040;-79
2022/01/02 18:31:41;;;;;;;138.63;61.65;;;8.40;99.90;;;;;;4917143;29;20408;-74
2022/01/02 18:34:07;;;;;;;135.05;61.13;;;8.40;99.90;;;;;;4917639;29;20534;-75
2022/01/02 18:36:33;;;;;;;82.60;44.17;;;8.40;99.90;;;;;;4919777;29;20111;-76
2022/01/02 18:38:59;;;;;;;68.65;37.67;;;8.40;99.90;;;;;;4916660;29;20079;-74
2022/01/02 18:41:24;;;;;;;98.10;48.50;;;8.40;99.90;;;;;;4916594;29;20054;-74
2022/01/02 18:43:50;;;;;;;91.15;45.65;;;8.40;99.90;;;;;;4902659;29;20477;-72
2022/01/02 18:46:16;;;;;;;71.70;37.30;;;8.40;99.90;;;;;;4920676;29;20048;-74
2022/01/02 18:48:41;;;;;;;79.30;43.42;;;8.40;99.90;;;;;;4915999;29;20492;-76
2022/01/02 18:51:07;;;;;;;88.95;46.03;;;8.40;99.90;;;;;;4917419;29;20028;-76
2022/01/02 18:53:33;;;;;;;85.55;44.25;;;8.30;99.90;;;;;;4917819;29;20449;-77
2022/01/02 18:56:00;;;;;;;64.78;37.28;;;8.40;99.90;;;;;;4933434;29;20579;-75
2022/01/02 18:58:26;;;;;;;65.57;35.85;;;8.40;99.90;;;;;;4936624;29;20384;-73
2022/01/02 19:00:52;;;;;;;56.33;32.33;;;8.40;99.90;;;;;;4936468;29;20056;-76
2022/01/02 19:03:18;;;;;;;50.15;30.52;;;8.40;99.90;;;;;;4936817;29;20492;-75
2022/01/02 19:05:44;;;;;;;72.85;39.72;;;8.40;99.90;;;;;;4936581;29;20132;-76
2022/01/02 19:08:10;;;;;;;68.82;38.40;;;8.40;99.90;;;;;;4936673;29;20028;-75
2022/01/02 19:10:38;;;;;;;79.20;43.50;;;8.40;99.90;;;;;;4919317;29;20419;-76
2022/01/02 19:13:04;;;;;;;83.32;43.33;;;8.40;99.90;;;;;;4936216;29;20020;-73
2022/01/02 19:15:30;;;;;;;48.17;30.67;;;8.40;99.90;;;;;;4936654;29;20539;-74
2022/01/02 19:17:56;;;;;;;49.20;29.63;;;8.40;99.90;;;;;;4936412;29;20027;-76
2022/01/02 19:20:22;;;;;;;47.75;29.50;;;8.30;99.90;;;;;;4936168;29;20048;-76
2022/01/02 19:22:48;;;;;;;73.82;39.95;;;8.30;99.90;;;;;;4935945;29;20380;-75
2022/01/02 19:25:22;;;;;;;150.32;67.75;;;8.30;99.90;;;;;;4935430;29;20028;-76
2022/01/02 19:27:49;;;;;;;66.38;37.60;;;8.30;99.90;;;;;;4935886;29;20030;-75
2022/01/02 19:30:16;;;;;;;65.57;36.42;;;8.30;99.90;;;;;;4935846;29;20106;-76
2022/01/02 19:32:42;;;;;;;64.05;39.83;;;8.30;99.90;;;;;;4935235;29;20035;-76
2022/01/02 19:35:09;;;;;;;56.13;36.45;;;8.20;99.90;;;;;;4935537;29;20023;-75
2022/01/02 19:37:35;;;;;;;61.88;35.13;;;8.20;99.90;;;;;;4935748;29;20024;-76
2022/01/02 19:40:05;;;;;;;69.18;40.85;;;8.20;99.90;;;;;;4921586;29;20362;-74
2022/01/02 19:42:31;;;;;;;53.90;31.90;;;8.10;99.90;;;;;;4917013;29;20036;-74
2022/01/02 19:44:58;;;;;;;48.03;30.90;;;8.00;99.90;;;;;;4916866;29;20036;-76
2022/01/02 19:47:24;;;;;;;53.15;31.33;;;8.00;99.90;;;;;;4917116;29;20027;-74
2022/01/02 19:49:52;;;;;;;55.22;32.88;;;8.00;99.90;;;;;;4916997;29;20125;-75
2022/01/02 19:52:18;;;;;;;53.00;30.70;;;8.00;99.90;;;;;;4900640;29;20358;-75
2022/01/02 19:54:44;;;;;;;56.92;32.22;;;8.00;99.90;;;;;;4916962;29;20028;-75
2022/01/02 19:57:10;;;;;;;47.78;29.13;;;8.00;99.90;;;;;;4916403;29;20032;-74
2022/01/02 19:59:39;;;;;;;52.05;30.25;;;8.00;99.90;;;;;;4916183;29;20028;-74
2022/01/02 20:02:06;;;;;;;53.58;30.75;;;7.90;99.90;;;;;;4916557;29;20032;-74
2022/01/02 20:04:32;;;;;;;54.45;32.85;;;7.90;99.90;;;;;;4916231;29;20058;-75
2022/01/02 20:06:57;;;;;;;55.65;32.33;;;7.90;99.90;;;;;;4916648;29;20068;-74
2022/01/02 20:09:24;;;;;;;54.97;33.10;;;7.90;99.90;;;;;;4915885;29;20080;-74
2022/01/02 20:11:50;;;;;;;57.20;32.03;;;7.90;99.90;;;;;;4916368;29;20025;-74
2022/01/02 20:14:16;;;;;;;54.30;32.78;;;7.80;99.90;;;;;;4915659;29;20078;-73
2022/01/02 20:16:42;;;;;;;52.47;32.80;;;7.80;99.90;;;;;;4916051;29;20489;-74
2022/01/02 20:19:08;;;;;;;55.55;31.83;;;7.80;99.90;;;;;;4915658;29;20413;-74
2022/01/02 20:21:36;;;;;;;45.53;28.73;;;7.80;99.90;;;;;;4916215;29;20103;-74
2022/01/02 20:24:03;;;;;;;52.88;32.13;;;7.70;99.90;;;;;;4914878;29;20024;-74
2022/01/02 20:26:29;;;;;;;62.58;38.17;;;7.70;99.90;;;;;;4918207;29;20100;-74
2022/01/02 20:28:55;;;;;;;61.42;37.75;;;7.70;99.90;;;;;;4920670;29;20511;-74
2022/01/02 20:31:21;;;;;;;59.10;36.30;;;7.70;99.90;;;;;;4916054;29;20436;-74
2022/01/02 20:33:49;;;;;;;57.47;35.10;;;7.60;99.90;;;;;;4917415;29;20038;-74
2022/01/02 20:36:15;;;;;;;52.53;33.40;;;7.60;99.90;;;;;;4917445;29;20373;-74
2022/01/02 20:38:41;;;;;;;59.92;34.95;;;7.50;99.90;;;;;;4914833;29;20028;-74
2022/01/02 20:41:09;;;;;;;56.03;33.55;;;7.50;99.90;;;;;;4915298;29;20035;-75
2022/01/02 20:43:37;;;;;;;58.08;34.60;;;7.50;99.90;;;;;;4918763;29;20451;-75
2022/01/02 20:46:03;;;;;;;54.83;33.28;;;7.40;99.90;;;;;;4914719;29;20052;-74
2022/01/02 20:48:29;;;;;;;58.17;34.78;;;7.40;99.90;;;;;;4915123;29;20353;-73
2022/01/02 20:50:57;;;;;;;63.83;34.03;;;7.40;99.90;;;;;;4917912;29;20031;-74
2022/01/02 20:53:23;;;;;;;54.00;32.72;;;7.30;99.90;;;;;;4915956;29;20477;-73
2022/01/02 20:55:49;;;;;;;49.60;30.65;;;7.30;99.90;;;;;;4915725;29;20059;-75
2022/01/02 20:58:16;;;;;;;47.47;29.48;;;7.30;99.90;;;;;;4917142;29;20027;-75
2022/01/02 21:00:42;;;;;;;44.63;28.38;;;7.30;99.90;;;;;;4919467;29;20391;-76
2022/01/02 21:03:09;;;;;;;51.58;29.05;;;7.30;99.90;;;;;;4915681;29;20024;-76
2022/01/02 21:05:35;;;;;;;40.47;26.95;;;7.30;99.90;;;;;;4915776;29;20088;-76
2022/01/02 21:08:01;;;;;;;48.13;28.77;;;7.30;99.90;;;;;;4915303;29;20032;-76
2022/01/02 21:10:27;;;;;;;46.10;27.90;;;7.30;99.90;;;;;;4916000;29;20091;-74
2022/01/02 21:12:54;;;;;;;42.67;27.05;;;7.30;99.90;;;;;;4897728;29;20036;-75
2022/01/02 21:15:20;;;;;;;47.15;28.92;;;7.30;99.90;;;;;;4914981;29;20067;-75
2022/01/02 21:17:49;;;;;;;47.30;29.52;;;7.30;99.90;;;;;;4897937;29;20503;-75
2022/01/02 21:20:18;;;;;;;47.50;29.63;;;7.30;99.90;;;;;;4915263;29;20044;-75
2022/01/02 21:22:44;;;;;;;51.28;29.02;;;7.30;99.90;;;;;;4915269;29;20051;-75
2022/01/02 21:25:12;;;;;;;44.30;27.42;;;7.30;99.90;;;;;;4914932;29;20087;-75
2022/01/02 21:27:39;;;;;;;42.92;27.35;;;7.30;99.90;;;;;;4898469;29;20020;-75
2022/01/02 21:30:07;;;;;;;44.88;26.83;;;7.30;99.90;;;;;;4898100;29;20437;-75
2022/01/02 21:32:33;;;;;;;45.30;28.00;;;7.30;99.90;;;;;;4914904;29;20012;-75
2022/01/02 21:34:59;;;;;;;52.10;29.45;;;7.30;99.90;;;;;;4914583;29;20245;-75
2022/01/02 21:37:26;;;;;;;48.45;27.92;;;7.30;99.90;;;;;;4897868;29;20040;-75
2022/01/02 21:39:52;;;;;;;47.38;28.58;;;7.20;99.90;;;;;;4920460;29;20118;-74
2022/01/02 21:42:18;;;;;;;41.08;25.58;;;7.20;99.90;;;;;;4914622;29;20047;-75
2022/01/02 21:44:45;;;;;;;45.47;28.33;;;7.10;99.90;;;;;;4919583;29;20528;-75
2022/01/02 21:47:12;;;;;;;46.95;28.98;;;7.10;99.90;;;;;;4914491;29;20051;-75
2022/01/02 21:49:39;;;;;;;41.67;26.40;;;7.10;99.90;;;;;;4915253;29;20770;-74
2022/01/02 21:52:05;;;;;;;42.03;26.98;;;7.10;99.90;;;;;;4915361;29;20043;-74
2022/01/02 21:54:31;;;;;;;52.28;28.70;;;7.00;99.90;;;;;;4916461;29;20493;-75
2022/01/02 21:56:57;;;;;;;44.25;27.38;;;7.00;99.90;;;;;;4918932;29;20076;-75
2022/01/02 21:59:23;;;;;;;49.63;29.00;;;7.00;99.90;;;;;;4918432;29;20036;-75
2022/01/02 22:01:50;;;;;;;42.80;25.95;;;7.00;99.90;;;;;;4918451;29;20024;-75
2022/01/02 22:04:16;;;;;;;45.17;26.77;;;7.00;99.90;;;;;;4918200;29;20107;-75
2022/01/02 22:06:44;;;;;;;45.17;27.58;;;7.00;99.90;;;;;;4918258;29;20481;-74
2022/01/02 22:09:10;;;;;;;41.15;27.20;;;7.00;99.90;;;;;;4918271;29;20548;-75
2022/01/02 22:11:36;;;;;;;47.55;28.45;;;7.00;99.90;;;;;;4918093;29;20020;-75
2022/01/02 22:14:02;;;;;;;47.22;29.77;;;7.00;99.90;;;;;;4918509;29;20064;-75
2022/01/02 22:16:28;;;;;;;45.92;28.02;;;7.10;99.90;;;;;;4900889;29;20039;-75
2022/01/02 22:18:55;;;;;;;44.70;26.25;;;7.10;99.90;;;;;;4917640;29;20036;-75
2022/01/02 22:21:24;;;;;;;42.55;26.88;;;7.10;99.90;;;;;;4918343;29;20024;-74
2022/01/02 22:23:51;;;;;;;48.40;29.20;;;7.10;99.90;;;;;;4918725;29;20024;-76
2022/01/02 22:26:23;;;;;;;49.03;29.13;;;7.10;99.90;;;;;;4918928;29;20048;-75
2022/01/02 22:28:49;;;;;;;45.33;28.70;;;7.10;99.90;;;;;;4918239;29;20433;-74
2022/01/02 22:31:20;;;;;;;52.30;31.40;;;7.10;99.90;;;;;;4921069;29;20386;-75
2022/01/02 22:33:50;;;;;;;49.00;27.85;;;7.00;99.90;;;;;;4921122;29;20075;-74
2022/01/02 22:36:20;;;;;;;46.67;28.42;;;7.00;99.90;;;;;;4901764;29;20119;-75
2022/01/02 22:38:47;;;;;;;50.20;29.48;;;7.00;99.90;;;;;;4920971;29;20032;-74
2022/01/02 22:41:14;;;;;;;52.35;29.60;;;7.00;99.90;;;;;;4918204;29;20027;-73
2022/01/02 22:43:40;;;;;;;51.22;29.00;;;7.10;99.90;;;;;;4920604;29;20115;-75
2022/01/02 22:46:07;;;;;;;55.90;30.65;;;7.10;99.90;;;;;;4918534;29;20118;-75
2022/01/02 22:48:34;;;;;;;55.83;32.72;;;7.10;99.90;;;;;;4917960;29;20418;-74
2022/01/02 22:51:07;;;;;;;52.00;29.60;;;7.00;99.90;;;;;;4901193;29;20366;-75
2022/01/02 22:53:34;;;;;;;50.65;29.00;;;7.00;99.90;;;;;;4919711;29;20387;-75
2022/01/02 22:56:00;;;;;;;54.33;32.17;;;7.00;99.90;;;;;;4918134;29;20036;-74
2022/01/02 22:58:27;;;;;;;60.15;31.52;;;7.00;99.90;;;;;;4918493;29;20032;-73
2022/01/02 23:01:01;;;;;;;55.72;32.63;;;7.00;99.90;;;;;;4918681;29;20059;-74
2022/01/02 23:03:29;;;;;;;56.63;32.47;;;6.90;99.90;;;;;;4918740;29;20095;-74
2022/01/02 23:05:59;;;;;;;55.33;31.65;;;6.80;99.90;;;;;;4917964;29;20477;-74
2022/01/02 23:08:27;;;;;;;48.42;29.10;;;6.80;99.90;;;;;;4917949;29;20173;-75
2022/01/02 23:10:55;;;;;;;46.92;28.17;;;6.70;99.90;;;;;;4918182;29;20039;-75
2022/01/02 23:13:21;;;;;;;46.03;27.60;;;6.70;99.90;;;;;;4917752;29;20054;-74
2022/01/02 23:15:50;;;;;;;48.92;27.58;;;6.60;99.90;;;;;;4917653;29;20028;-74
2022/01/02 23:18:17;;;;;;;50.10;28.40;;;6.50;99.90;;;;;;4917862;29;20028;-74
2022/01/02 23:20:45;;;;;;;52.85;30.77;;;6.40;99.90;;;;;;4917661;29;20441;-75
2022/01/02 23:23:13;;;;;;;47.83;28.95;;;6.40;99.90;;;;;;4917452;29;20028;-74
2022/01/02 23:25:39;;;;;;;50.55;28.67;;;6.30;99.90;;;;;;4917494;29;20040;-74
2022/01/02 23:28:07;;;;;;;48.72;29.75;;;6.20;99.90;;;;;;4918138;29;20594;-74
2022/01/02 23:30:35;;;;;;;49.45;28.77;;;6.20;99.90;;;;;;4917816;29;20392;-74
2022/01/02 23:33:04;;;;;;;49.95;29.25;;;6.10;99.90;;;;;;4917848;29;20056;-75
2022/01/02 23:35:35;;;;;;;47.08;28.92;;;6.10;99.90;;;;;;4917676;29;20028;-75
2022/01/02 23:38:01;;;;;;;48.50;27.53;;;6.00;99.90;;;;;;4917917;29;20035;-75
2022/01/02 23:40:27;;;;;;;52.70;29.27;;;6.00;99.90;;;;;;4918003;29;20048;-74
2022/01/02 23:42:53;;;;;;;50.85;28.17;;;6.00;99.90;;;;;;4918082;29;20028;-75
2022/01/02 23:45:19;;;;;;;45.17;27.63;;;6.00;99.90;;;;;;4918017;29;20040;-75
2022/01/02 23:47:48;;;;;;;45.17;27.60;;;6.00;99.90;;;;;;4900757;29;20028;-73
2022/01/02 23:50:14;;;;;;;42.55;25.15;;;6.00;99.90;;;;;;4917732;29;20441;-75
2022/01/02 23:52:48;;;;;;;48.35;26.90;;;6.00;99.90;;;;;;4917860;29;20040;-75
2022/01/02 23:55:18;;;;;;;45.22;27.10;;;5.90;99.90;;;;;;4917605;29;20024;-74
2022/01/02 23:57:53;;;;;;;48.97;28.90;;;5.90;99.90;;;;;;4917706;29;20020;-75
